createdAt,value
2023-02-21T00:05:24.589Z,97580.53
2023-02-21T00:08:06.916Z,97574.53
2023-02-21T00:10:49.129Z,97576.69
2023-02-21T00:13:31.208Z,97559.59
2023-02-21T00:16:13.547Z,97564.69
2023-02-21T00:19:00.620Z,97559.78
2023-02-21T00:21:45.425Z,97558.94
2023-02-21T00:24:28.071Z,97560.25
2023-02-21T00:27:10.207Z,97553.19
2023-02-21T00:29:52.284Z,97558.16
2023-02-21T00:32:34.616Z,97559.75
2023-02-21T00:35:17.060Z,97502.53
2023-02-21T00:38:04.558Z,97555.56
2023-02-21T00:40:46.585Z,97533.47
2023-02-21T00:43:35.764Z,97554.53
2023-02-21T00:46:19.559Z,97553.59
2023-02-21T00:49:01.774Z,97543.38
2023-02-21T00:51:54.594Z,97547.41
2023-02-21T00:54:38.943Z,97534.06
2023-02-21T00:57:21.097Z,97532.22
2023-02-21T01:00:08.351Z,97526.34
2023-02-21T01:02:50.445Z,97533.44
2023-02-21T01:05:32.718Z,97516.47
2023-02-21T01:08:14.842Z,97515.41
2023-02-21T01:11:04.218Z,97516.94
2023-02-21T01:13:51.292Z,97505.78
2023-02-21T01:16:33.734Z,97509.34
2023-02-21T01:19:15.775Z,97521.28
2023-02-21T01:21:57.974Z,97500.97
2023-02-21T01:24:41.567Z,97462.63
2023-02-21T01:27:35.669Z,97502.00
2023-02-21T01:30:19.563Z,97500.72
2023-02-21T01:33:01.774Z,97497.19
2023-02-21T01:35:43.859Z,97494.78
2023-02-21T01:38:31.057Z,97508.00
2023-02-21T01:41:14.631Z,97512.75
2023-02-21T01:44:15.417Z,97498.19
2023-02-21T01:46:57.537Z,97503.16
2023-02-21T01:52:27.304Z,97507.72
2023-02-21T01:55:15.624Z,97506.63
2023-02-21T01:58:03.135Z,97504.75
2023-02-21T02:00:49.218Z,97505.94
2023-02-21T02:03:34.868Z,97503.13
2023-02-21T02:06:20.145Z,97494.50
2023-02-21T02:09:02.653Z,97506.72
2023-02-21T02:12:10.974Z,97503.88
2023-02-21T02:14:57.518Z,97503.41
2023-02-21T02:17:48.460Z,97504.97
2023-02-21T02:20:57.563Z,97508.00
2023-02-21T02:24:16.194Z,97507.78
2023-02-21T02:27:20.700Z,97514.13
2023-02-21T02:30:22.934Z,97495.41
2023-02-21T02:33:27.378Z,97494.06
2023-02-21T02:36:10.810Z,97504.41
2023-02-21T02:38:51.797Z,97501.38
2023-02-21T02:41:29.586Z,97490.13
2023-02-21T02:44:06.556Z,97502.75
2023-02-21T02:46:40.212Z,97491.69
2023-02-21T02:49:12.396Z,97487.59
2023-02-21T02:51:43.915Z,97476.94
2023-02-21T02:54:14.276Z,97477.41
2023-02-21T02:56:43.434Z,97492.47
2023-02-21T02:59:25.415Z,97494.16
2023-02-21T03:02:11.443Z,97486.16
2023-02-21T03:05:01.754Z,97432.31
2023-02-21T03:07:45.982Z,97483.59
2023-02-21T03:10:23.511Z,97481.59
2023-02-21T03:13:03.847Z,97485.16
2023-02-21T03:15:40.417Z,97487.88
2023-02-21T03:18:18.061Z,97477.53
2023-02-21T03:20:58.507Z,97491.06
2023-02-21T03:23:32.725Z,97474.75
2023-02-21T03:26:16.163Z,97476.53
2023-02-21T03:28:53.833Z,97477.38
2023-02-21T03:31:28.296Z,97471.56
2023-02-21T03:33:57.911Z,97478.59
2023-02-21T03:36:27.668Z,97478.53
2023-02-21T03:41:44.473Z,97487.06
2023-02-21T03:44:14.383Z,97472.88
2023-02-21T03:46:48.727Z,97475.97
2023-02-21T03:49:17.980Z,97472.41
2023-02-21T03:51:47.137Z,97467.28
2023-02-21T03:54:23.302Z,97455.81
2023-02-21T03:56:55.227Z,97465.84
2023-02-21T03:59:34.041Z,97469.56
2023-02-21T04:02:03.471Z,97470.13
2023-02-21T04:04:35.669Z,97466.56
2023-02-21T04:07:17.736Z,97418.94
2023-02-21T04:09:50.138Z,97472.16
2023-02-21T04:12:32.800Z,97469.38
2023-02-21T04:15:07.088Z,97469.97
2023-02-21T04:17:36.911Z,97455.41
2023-02-21T04:20:08.716Z,97479.75
2023-02-21T04:23:02.812Z,97477.00
2023-02-21T04:25:35.252Z,97482.03
2023-02-21T04:28:10.193Z,97476.84
2023-02-21T04:30:39.461Z,97471.47
2023-02-21T04:33:08.562Z,97467.03
2023-02-21T04:35:40.290Z,97475.66
2023-02-21T04:38:16.984Z,97485.50
2023-02-21T04:40:48.450Z,97493.53
2023-02-21T04:43:17.230Z,97487.19
2023-02-21T04:45:46.339Z,97484.63
2023-02-21T04:48:20.775Z,97486.41
2023-02-21T04:50:50.121Z,97497.81
2023-02-21T04:53:19.171Z,97505.94
2023-02-21T04:55:50.355Z,97500.75
2023-02-21T04:58:19.518Z,97491.50
2023-02-21T05:00:48.751Z,97507.91
2023-02-21T05:03:18.060Z,97492.56
2023-02-21T05:05:47.194Z,97514.59
2023-02-21T05:08:17.813Z,97506.47
2023-02-21T05:10:54.636Z,97497.47
2023-02-21T05:13:24.546Z,97495.72
2023-02-21T05:15:53.615Z,97502.06
2023-02-21T05:18:28.366Z,97492.47
2023-02-21T05:20:57.814Z,97489.50
2023-02-21T05:23:41.137Z,97453.22
2023-02-21T05:26:14.791Z,97505.16
2023-02-21T05:28:43.921Z,97484.38
2023-02-21T05:31:13.103Z,97502.47
2023-02-21T05:33:42.347Z,97507.03
2023-02-21T05:36:16.798Z,97465.78
2023-02-21T05:38:51.416Z,97474.00
2023-02-21T05:41:27.933Z,97504.63
2023-02-21T05:43:57.189Z,97500.91
2023-02-21T05:46:28.793Z,97501.81
2023-02-21T05:49:00.023Z,97492.50
2023-02-21T05:51:30.127Z,97489.13
2023-02-21T05:53:59.266Z,97500.22
2023-02-21T05:56:30.275Z,97488.09
2023-02-21T05:59:04.389Z,97499.19
2023-02-21T06:01:33.611Z,97452.16
2023-02-21T06:04:02.860Z,97497.88
2023-02-21T06:06:32.014Z,97496.03
2023-02-21T06:09:01.174Z,97492.59
2023-02-21T06:11:36.584Z,97474.09
2023-02-21T06:14:13.173Z,97465.31
2023-02-21T06:16:42.342Z,97477.94
2023-02-21T06:19:12.270Z,97498.44
2023-02-21T06:21:42.222Z,97498.09
2023-02-21T06:26:49.279Z,97498.97
2023-02-21T06:29:18.518Z,97507.50
2023-02-21T06:31:47.697Z,97505.16
2023-02-21T06:34:16.928Z,97448.53
2023-02-21T06:36:46.095Z,97499.81
2023-02-21T06:39:16.601Z,97501.78
2023-02-21T06:41:53.739Z,97494.41
2023-02-21T06:44:23.191Z,97460.84
2023-02-21T06:46:54.388Z,97503.47
2023-02-21T06:49:23.412Z,97509.75
2023-02-21T06:51:52.838Z,97499.59
2023-02-21T06:54:26.984Z,97447.97
2023-02-21T06:56:58.660Z,97520.66
2023-02-21T06:59:28.141Z,97513.34
2023-02-21T07:01:57.554Z,97474.31
2023-02-21T07:04:27.853Z,97516.56
2023-02-21T07:07:02.211Z,97513.16
2023-02-21T07:09:31.430Z,97512.91
2023-02-21T07:12:02.973Z,97510.66
2023-02-21T07:14:34.255Z,97522.53
2023-02-21T07:17:03.861Z,97523.47
2023-02-21T07:19:37.935Z,97519.28
2023-02-21T07:22:12.299Z,97487.03
2023-02-21T07:24:41.456Z,97525.00
2023-02-21T07:27:17.572Z,97528.91
2023-02-21T07:29:49.548Z,97526.56
2023-02-21T07:32:27.149Z,97518.03
2023-02-21T07:35:01.246Z,97533.78
2023-02-21T07:37:32.475Z,97523.16
2023-02-21T07:40:01.669Z,97537.03
2023-02-21T07:42:35.505Z,97528.13
2023-02-21T07:45:05.779Z,97537.91
2023-02-21T07:47:34.951Z,97548.34
2023-02-21T07:50:09.265Z,97522.97
2023-02-21T07:52:38.484Z,97536.63
2023-02-21T07:55:13.125Z,97549.97
2023-02-21T07:57:44.514Z,97549.34
2023-02-21T08:00:19.296Z,97544.34
2023-02-21T08:02:50.528Z,97537.84
2023-02-21T08:05:25.008Z,97533.13
2023-02-21T08:07:55.587Z,97514.63
2023-02-21T08:10:26.383Z,97541.97
2023-02-21T08:12:57.841Z,97480.19
2023-02-21T08:15:27.737Z,97543.72
2023-02-21T08:17:56.920Z,97532.63
2023-02-21T08:20:32.028Z,97521.66
2023-02-21T08:23:12.460Z,97532.50
2023-02-21T08:25:42.179Z,97505.84
2023-02-21T08:28:13.431Z,97534.16
2023-02-21T08:30:42.721Z,97520.91
2023-02-21T08:33:11.953Z,97535.19
2023-02-21T08:35:41.203Z,97528.59
2023-02-21T08:38:10.423Z,97511.84
2023-02-21T08:40:39.708Z,97510.25
2023-02-21T08:43:10.288Z,97507.44
2023-02-21T08:45:41.709Z,97528.75
2023-02-21T08:48:10.493Z,97525.75
2023-02-21T08:50:39.654Z,97540.69
2023-02-21T08:53:13.730Z,97539.97
2023-02-21T08:55:44.248Z,97540.31
2023-02-21T08:58:14.571Z,97539.81
2023-02-21T09:00:51.463Z,97553.56
2023-02-21T09:03:28.291Z,97535.00
2023-02-21T09:05:57.536Z,97533.47
2023-02-21T09:08:28.166Z,97538.00
2023-02-21T09:10:59.908Z,97536.59
2023-02-21T09:13:29.208Z,97525.59
2023-02-21T09:16:01.454Z,97547.56
2023-02-21T09:18:35.760Z,97508.94
2023-02-21T09:21:04.930Z,97515.06
2023-02-21T09:23:34.262Z,97532.53
2023-02-21T09:26:08.512Z,97533.38
2023-02-21T09:28:42.924Z,97514.84
2023-02-21T09:31:14.485Z,97523.59
2023-02-21T09:33:44.117Z,97535.00
2023-02-21T09:36:13.849Z,97528.50
2023-02-21T09:38:49.099Z,97535.34
2023-02-21T09:41:18.989Z,97535.75
2023-02-21T09:43:50.603Z,97524.38
2023-02-21T09:46:26.958Z,97526.28
2023-02-21T09:48:56.113Z,97534.19
2023-02-21T09:51:26.069Z,97541.38
2023-02-21T09:53:58.272Z,97513.28
2023-02-21T09:56:30.538Z,97519.88
2023-02-21T09:59:00.580Z,97515.44
2023-02-21T10:01:55.838Z,97513.00
2023-02-21T10:04:37.124Z,97510.38
2023-02-21T10:07:15.939Z,97526.50
2023-02-21T10:09:51.940Z,97515.44
2023-02-21T10:12:28.501Z,97531.59
2023-02-21T10:15:20.577Z,97544.63
2023-02-21T10:18:00.620Z,97514.13
2023-02-21T10:20:37.579Z,97534.66
2023-02-21T10:23:19.151Z,97498.09
2023-02-21T10:25:53.870Z,97540.91
2023-02-21T10:28:25.941Z,97543.97
2023-02-21T10:30:59.336Z,97530.81
2023-02-21T10:33:31.118Z,97526.72
2023-02-21T10:36:00.668Z,97532.75
2023-02-21T10:38:29.792Z,97534.53
2023-02-21T10:41:01.405Z,97548.59
2023-02-21T10:43:33.434Z,97540.31
2023-02-21T10:46:05.188Z,97558.34
2023-02-21T10:48:40.215Z,97557.63
2023-02-21T10:54:01.166Z,97577.59
2023-02-21T10:56:30.688Z,97566.50
2023-02-21T10:59:05.837Z,97557.91
2023-02-21T11:01:44.272Z,97554.41
2023-02-21T11:04:31.452Z,97563.09
2023-02-21T11:09:42.495Z,97555.13
2023-02-21T11:12:29.853Z,97578.31
2023-02-21T11:15:17.793Z,97560.41
2023-02-21T11:18:07.210Z,97521.28
2023-02-21T11:20:38.551Z,97563.44
2023-02-21T11:23:32.806Z,97543.72
2023-02-21T11:26:09.295Z,97576.16
2023-02-21T11:28:43.102Z,97565.91
2023-02-21T11:31:23.978Z,97602.22
2023-02-21T11:33:59.732Z,97547.75
2023-02-21T11:36:33.570Z,97577.44
2023-02-21T11:39:20.215Z,97603.53
2023-02-21T11:41:51.077Z,97588.13
2023-02-21T11:44:29.383Z,97598.00
2023-02-21T11:47:08.971Z,97611.06
2023-02-21T11:49:49.305Z,97623.31
2023-02-21T11:52:32.725Z,97612.09
2023-02-21T11:55:02.090Z,97591.81
2023-02-21T11:57:45.927Z,97606.75
2023-02-21T12:00:24.933Z,97616.66
2023-02-21T12:03:21.481Z,97592.47
2023-02-21T12:05:59.937Z,97630.75
2023-02-21T12:08:46.897Z,97614.81
2023-02-21T12:11:36.827Z,97623.25
2023-02-21T12:14:41.348Z,97613.09
2023-02-21T12:17:31.326Z,97614.50
2023-02-21T12:20:13.303Z,97638.25
2023-02-21T12:22:59.726Z,97627.69
2023-02-21T12:25:38.934Z,97625.91
2023-02-21T12:28:19.138Z,97651.66
2023-02-21T12:31:00.064Z,97638.78
2023-02-21T12:33:43.420Z,97626.03
2023-02-21T12:36:22.809Z,97641.88
2023-02-21T12:39:00.392Z,97647.16
2023-02-21T12:41:46.872Z,97644.53
2023-02-21T12:44:19.438Z,97674.41
2023-02-21T12:53:29.705Z,97636.97
2023-02-21T12:56:04.890Z,97661.28
2023-02-21T12:58:39.751Z,97678.25
2023-02-21T13:01:15.567Z,97694.59
2023-02-21T13:03:54.782Z,97698.44
2023-02-21T13:06:31.529Z,97676.72
2023-02-21T13:09:13.227Z,97678.53
2023-02-21T13:11:48.720Z,97667.78
2023-02-21T13:14:27.417Z,97690.19
2023-02-21T13:16:57.041Z,97689.75
2023-02-21T13:19:27.720Z,97691.63
2023-02-21T13:22:20.931Z,97709.97
2023-02-21T13:24:59.473Z,97704.34
2023-02-21T13:27:52.824Z,97712.56
2023-02-21T13:30:27.412Z,97696.97
2023-02-21T13:32:59.549Z,97714.78
2023-02-21T13:35:33.906Z,97730.19
2023-02-21T13:38:10.429Z,97736.41
2023-02-21T13:40:50.569Z,97713.72
2023-02-21T13:43:31.408Z,97696.69
2023-02-21T13:46:43.504Z,97727.38
2023-02-21T13:49:54.053Z,97750.13
2023-02-21T13:52:58.766Z,97745.31
2023-02-21T13:55:34.000Z,97743.06
2023-02-21T13:58:47.504Z,97751.59
2023-02-21T14:01:53.408Z,97752.47
2023-02-21T14:05:04.520Z,97754.09
2023-02-21T14:07:59.562Z,97702.56
2023-02-21T14:10:35.566Z,97662.53
2023-02-21T14:13:07.315Z,97801.41
2023-02-21T14:15:49.368Z,97772.81
2023-02-21T14:18:23.886Z,97812.50
2023-02-21T14:21:00.098Z,97802.53
2023-02-21T14:23:42.874Z,97812.69
2023-02-21T14:26:37.964Z,97816.78
2023-02-21T14:29:16.311Z,97796.31
2023-02-21T14:32:00.918Z,97837.34
2023-02-21T14:37:18.913Z,97840.50
2023-02-21T14:39:59.784Z,97848.06
2023-02-21T14:43:01.735Z,97877.28
2023-02-21T14:45:48.862Z,97869.84
2023-02-21T14:48:36.459Z,97873.97
2023-02-21T14:51:36.822Z,97869.41
2023-02-21T14:54:45.553Z,97879.19
2023-02-21T14:57:41.281Z,97870.03
2023-02-21T15:00:21.498Z,97884.09
2023-02-21T15:03:02.911Z,97884.72
2023-02-21T15:05:37.929Z,97862.44
2023-02-21T15:08:19.667Z,97887.38
2023-02-21T15:10:51.463Z,97901.78
2023-02-21T15:13:26.555Z,97928.41
2023-02-21T15:16:02.161Z,97932.22
2023-02-21T15:18:34.517Z,97906.53
2023-02-21T15:21:20.423Z,97868.22
2023-02-21T15:24:04.321Z,97913.38
2023-02-21T15:26:34.327Z,97901.31
2023-02-21T15:29:11.113Z,97937.31
2023-02-21T15:31:43.963Z,97951.97
2023-02-21T15:34:21.562Z,97971.13
2023-02-21T15:36:55.200Z,97936.38
2023-02-21T15:39:33.707Z,97930.78
2023-02-21T15:42:05.717Z,97925.66
2023-02-21T15:44:47.339Z,97955.38
2023-02-21T15:47:22.542Z,97949.31
2023-02-21T15:50:07.759Z,97968.22
2023-02-21T15:52:39.804Z,97979.88
2023-02-21T15:55:28.345Z,97952.44
2023-02-21T15:58:03.485Z,97984.66
2023-02-21T16:00:42.559Z,97992.28
2023-02-21T16:03:34.027Z,98001.75
2023-02-21T16:06:19.519Z,97977.50
2023-02-21T16:09:01.444Z,98022.66
2023-02-21T16:11:42.227Z,98032.78
2023-02-21T16:14:19.501Z,98008.66
2023-02-21T16:16:53.630Z,98000.38
2023-02-21T16:19:25.088Z,98034.22
2023-02-21T16:22:13.560Z,98054.84
2023-02-21T16:24:43.039Z,98042.16
2023-02-21T16:27:19.640Z,98053.06
2023-02-21T16:29:48.797Z,98062.41
2023-02-21T16:32:22.871Z,98050.63
2023-02-21T16:34:54.505Z,98054.00
2023-02-21T16:37:29.121Z,98054.78
2023-02-21T16:40:05.112Z,98069.56
2023-02-21T16:42:34.306Z,98056.88
2023-02-21T16:45:03.433Z,98054.31
2023-02-21T16:47:40.260Z,98055.09
2023-02-21T16:50:23.530Z,98061.78
2023-02-21T16:52:58.137Z,98016.94
2023-02-21T16:55:28.094Z,98014.16
2023-02-21T16:58:04.489Z,98051.84
2023-02-21T17:00:34.917Z,98091.19
2023-02-21T17:03:11.944Z,98072.38
2023-02-21T17:05:41.074Z,98074.50
2023-02-21T17:08:10.236Z,98034.59
2023-02-21T17:10:39.454Z,98075.50
2023-02-21T17:13:08.595Z,98113.75
2023-02-21T17:15:37.797Z,98096.38
2023-02-21T17:18:07.306Z,98105.84
2023-02-21T17:20:38.337Z,98104.75
2023-02-21T17:23:08.290Z,98117.91
2023-02-21T17:25:37.710Z,98111.94
2023-02-21T17:28:07.116Z,98117.50
2023-02-21T17:33:17.583Z,98116.28
2023-02-21T17:35:48.747Z,98134.94
2023-02-21T17:38:22.957Z,98162.34
2023-02-21T17:40:53.057Z,98127.94
2023-02-21T17:43:22.202Z,98104.56
2023-02-21T17:45:51.328Z,98153.78
2023-02-21T17:48:20.439Z,98130.97
2023-02-21T17:50:58.134Z,98117.78
2023-02-21T17:53:27.769Z,98132.63
2023-02-21T17:55:59.399Z,98102.09
2023-02-21T17:58:29.740Z,98162.75
2023-02-21T18:00:58.873Z,98160.63
2023-02-21T18:03:29.853Z,98149.53
2023-02-21T18:06:01.188Z,98152.53
2023-02-21T18:08:35.476Z,98175.03
2023-02-21T18:11:04.594Z,98160.09
2023-02-21T18:13:33.795Z,98169.13
2023-02-21T18:16:04.979Z,98173.94
2023-02-21T18:18:34.314Z,98165.63
2023-02-21T18:21:06.119Z,98187.94
2023-02-21T18:23:37.489Z,98183.13
2023-02-21T18:26:07.336Z,98176.50
2023-02-21T18:28:36.424Z,98185.00
2023-02-21T18:31:05.878Z,98174.88
2023-02-21T18:33:35.288Z,98174.69
2023-02-21T18:36:10.511Z,98140.47
2023-02-21T18:38:41.938Z,98197.91
2023-02-21T18:41:15.235Z,98191.97
2023-02-21T18:43:45.258Z,98201.84
2023-02-21T18:46:16.241Z,98136.63
2023-02-21T18:48:52.822Z,98201.31
2023-02-21T18:51:23.887Z,98199.84
2023-02-21T18:53:58.016Z,98212.22
2023-02-21T18:56:27.180Z,98190.31
2023-02-21T18:58:58.529Z,98209.91
2023-02-21T19:01:27.999Z,98221.66
2023-02-21T19:03:57.559Z,98212.63
2023-02-21T19:06:28.862Z,98222.59
2023-02-21T19:08:57.960Z,98219.00
2023-02-21T19:11:27.084Z,98223.13
2023-02-21T19:13:56.683Z,98231.94
2023-02-21T19:16:27.179Z,98222.16
2023-02-21T19:18:57.406Z,98226.91
2023-02-21T19:21:28.636Z,98231.72
2023-02-21T19:23:57.856Z,98229.97
2023-02-21T19:26:30.901Z,98246.81
2023-02-21T19:29:06.063Z,98256.25
2023-02-21T19:31:35.314Z,98235.38
2023-02-21T19:34:04.668Z,98249.72
2023-02-21T19:36:38.593Z,98253.59
2023-02-21T19:39:08.054Z,98241.19
2023-02-21T19:41:38.079Z,98260.31
2023-02-21T19:44:08.210Z,98248.44
2023-02-21T19:46:42.396Z,98269.16
2023-02-21T19:49:17.574Z,98256.19
2023-02-21T19:51:56.153Z,98246.38
2023-02-21T19:54:29.438Z,98265.59
2023-02-21T19:56:58.810Z,98290.09
2023-02-21T19:59:28.830Z,98271.06
2023-02-21T20:02:05.099Z,98271.41
2023-02-21T20:04:34.724Z,98275.47
2023-02-21T20:07:06.409Z,98283.41
2023-02-21T20:09:35.568Z,98280.47
2023-02-21T20:12:04.653Z,98273.47
2023-02-21T20:14:39.379Z,98263.56
2023-02-21T20:17:08.603Z,98222.06
2023-02-21T20:19:37.892Z,98284.69
2023-02-21T20:22:08.943Z,98281.28
2023-02-21T20:24:38.323Z,98273.31
2023-02-21T20:27:07.400Z,98288.06
2023-02-21T20:29:41.629Z,98293.38
2023-02-21T20:32:10.771Z,98288.78
2023-02-21T20:34:41.328Z,98294.06
2023-02-21T20:37:14.005Z,98296.44
2023-02-21T20:39:43.219Z,98305.91
2023-02-21T20:42:12.790Z,98303.41
2023-02-21T20:47:19.209Z,98302.00
2023-02-21T20:49:49.363Z,98273.44
2023-02-21T20:54:55.016Z,98309.94
2023-02-21T20:57:26.502Z,98312.03
2023-02-21T20:59:55.806Z,98310.22
2023-02-21T21:05:01.245Z,98311.44
2023-02-21T21:07:33.665Z,98331.31
2023-02-21T21:10:10.797Z,98310.13
2023-02-21T21:12:42.802Z,98324.44
2023-02-21T21:15:18.885Z,98322.25
2023-02-21T21:17:48.940Z,98317.75
2023-02-21T21:20:20.315Z,98330.34
2023-02-21T21:22:51.328Z,98328.34
2023-02-21T21:25:22.248Z,98330.53
2023-02-21T21:27:51.518Z,98352.69
2023-02-21T21:30:23.098Z,98335.38
2023-02-21T21:32:58.333Z,98352.84
2023-02-21T21:35:29.573Z,98346.53
2023-02-21T21:38:02.495Z,98360.00
2023-02-21T21:40:31.845Z,98350.75
2023-02-21T21:43:02.141Z,98351.72
2023-02-21T21:45:32.480Z,98331.47
2023-02-21T21:48:01.679Z,98367.94
2023-02-21T21:50:31.141Z,98347.28
2023-02-21T21:53:02.238Z,98378.34
2023-02-21T21:55:32.240Z,98365.91
2023-02-21T21:58:10.392Z,98374.03
2023-02-21T22:00:43.208Z,98363.81
2023-02-21T22:03:14.863Z,98378.94
2023-02-21T22:05:45.183Z,98380.72
2023-02-21T22:10:54.380Z,98390.22
2023-02-21T22:13:38.406Z,98401.81
2023-02-21T22:16:09.361Z,98382.97
2023-02-21T22:18:43.536Z,98406.03
2023-02-21T22:21:13.824Z,98403.91
2023-02-21T22:23:51.320Z,98408.59
2023-02-21T22:26:21.815Z,98384.03
2023-02-21T22:28:56.634Z,98405.66
2023-02-21T22:31:26.768Z,98411.34
2023-02-21T22:33:58.856Z,98414.13
2023-02-21T22:36:28.402Z,98367.91
2023-02-21T22:39:07.896Z,98431.94
2023-02-21T22:41:39.474Z,98384.44
2023-02-21T22:44:20.361Z,98413.94
2023-02-21T22:46:57.508Z,98427.59
2023-02-21T22:49:26.663Z,98433.25
2023-02-21T22:51:56.957Z,98397.59
2023-02-21T22:57:11.082Z,98441.13
2023-02-21T22:59:41.523Z,98435.06
2023-02-21T23:02:16.536Z,98436.94
2023-02-21T23:04:46.157Z,98445.91
2023-02-21T23:07:29.227Z,98452.03
2023-02-21T23:10:00.384Z,98456.16
2023-02-21T23:12:29.824Z,98457.75
2023-02-21T23:15:03.907Z,98469.28
2023-02-21T23:17:33.711Z,98466.81
2023-02-21T23:20:15.091Z,98462.94
2023-02-21T23:22:44.955Z,98466.19
2023-02-21T23:25:25.079Z,98457.22
2023-02-21T23:27:57.433Z,98462.41
2023-02-21T23:30:33.375Z,98465.09
2023-02-21T23:33:05.804Z,98469.00
2023-02-21T23:35:35.004Z,98462.28
2023-02-21T23:38:05.895Z,98481.38
2023-02-21T23:40:38.955Z,98463.59
2023-02-21T23:43:09.724Z,98460.47
2023-02-21T23:45:40.918Z,98470.59
2023-02-21T23:48:15.220Z,98461.66
2023-02-21T23:50:49.566Z,98486.22
2023-02-21T23:53:22.216Z,98492.03
2023-02-21T23:55:57.139Z,98494.94
2023-02-21T23:58:34.079Z,98493.97
